createdAt,value
2023-01-09T00:00:30.035Z,7.11
2023-01-09T00:02:56.484Z,7.02
2023-01-09T00:05:22.980Z,7.02
2023-01-09T00:07:49.405Z,6.99
2023-01-09T00:10:15.927Z,6.87
2023-01-09T00:12:42.776Z,6.92
2023-01-09T00:15:10.020Z,6.93
2023-01-09T00:17:36.398Z,6.92
2023-01-09T00:20:04.450Z,6.91
2023-01-09T00:22:31.035Z,6.86
2023-01-09T00:24:57.435Z,6.84
2023-01-09T00:27:23.838Z,6.90
2023-01-09T00:29:50.256Z,6.90
2023-01-09T00:32:16.650Z,6.82
2023-01-09T00:34:43.384Z,6.83
2023-01-09T00:37:11.912Z,6.84
2023-01-09T00:39:42.618Z,6.70
2023-01-09T00:42:13.218Z,6.80
2023-01-09T00:45:00.059Z,6.79
2023-01-09T00:47:35.459Z,6.75
2023-01-09T00:50:09.984Z,6.69
2023-01-09T00:52:37.896Z,6.82
2023-01-09T00:55:05.425Z,6.81
2023-01-09T00:57:31.895Z,6.78
2023-01-09T00:59:59.481Z,6.81
2023-01-09T01:02:26.040Z,6.75
2023-01-09T01:05:10.754Z,6.69
2023-01-09T01:07:39.801Z,6.63
2023-01-09T01:10:10.368Z,6.63
2023-01-09T01:12:38.283Z,6.63
2023-01-09T01:15:06.197Z,6.54
2023-01-09T01:17:40.391Z,6.54
2023-01-09T01:20:12.808Z,6.51
2023-01-09T01:22:39.196Z,6.42
2023-01-09T01:25:05.726Z,6.39
2023-01-09T01:27:32.208Z,6.27
2023-01-09T01:29:58.619Z,6.29
2023-01-09T01:32:25.059Z,6.26
2023-01-09T01:34:51.565Z,6.19
2023-01-09T01:37:18.068Z,6.13
2023-01-09T01:39:44.535Z,6.01
2023-01-09T01:42:14.462Z,6.03
2023-01-09T01:45:02.513Z,5.93
2023-01-09T01:47:40.744Z,5.84
2023-01-09T01:50:16.384Z,5.78
2023-01-09T01:52:48.113Z,5.71
2023-01-09T01:55:16.584Z,5.70
2023-01-09T01:57:48.265Z,5.72
2023-01-09T02:00:14.991Z,5.71
2023-01-09T02:02:43.484Z,5.66
2023-01-09T02:05:10.017Z,5.61
2023-01-09T02:07:36.472Z,5.58
2023-01-09T02:10:04.192Z,5.55
2023-01-09T02:12:30.612Z,5.54
2023-01-09T02:15:05.952Z,5.50
2023-01-09T02:18:06.413Z,5.48
2023-01-09T02:20:52.445Z,5.47
2023-01-09T02:23:27.877Z,5.39
2023-01-09T02:26:31.769Z,5.26
2023-01-09T02:29:35.929Z,5.20
2023-01-09T02:32:41.629Z,5.08
2023-01-09T02:35:22.977Z,5.03
2023-01-09T02:38:21.150Z,4.97
2023-01-09T02:41:14.114Z,4.90
2023-01-09T02:43:41.627Z,4.82
2023-01-09T02:46:21.176Z,4.77
2023-01-09T02:48:52.620Z,4.69
2023-01-09T02:51:43.857Z,4.63
2023-01-09T02:54:41.111Z,4.57
2023-01-09T02:57:16.859Z,4.53
2023-01-09T03:00:02.378Z,4.50
2023-01-09T03:02:43.612Z,4.44
2023-01-09T03:05:22.743Z,4.58
2023-01-09T03:08:06.702Z,4.66
2023-01-09T03:11:02.113Z,4.64
2023-01-09T03:13:37.434Z,4.76
2023-01-09T03:16:07.921Z,4.77
2023-01-09T03:18:37.000Z,4.82
2023-01-09T03:21:06.343Z,4.85
2023-01-09T03:23:50.579Z,4.87
2023-01-09T03:26:18.333Z,4.90
2023-01-09T03:28:45.918Z,4.88
2023-01-09T03:31:12.743Z,4.97
2023-01-09T03:33:39.539Z,5.00
2023-01-09T03:36:06.792Z,5.10
2023-01-09T03:38:33.971Z,5.24
2023-01-09T03:41:00.423Z,5.26
2023-01-09T03:43:26.859Z,5.35
2023-01-09T03:45:53.299Z,5.32
2023-01-09T03:48:19.737Z,5.42
2023-01-09T03:50:49.059Z,5.49
2023-01-09T03:53:15.839Z,5.56
2023-01-09T03:55:51.012Z,5.62
2023-01-09T03:58:17.996Z,5.61
2023-01-09T04:00:46.055Z,5.64
2023-01-09T04:03:12.886Z,5.66
2023-01-09T04:05:39.420Z,5.76
2023-01-09T04:08:06.065Z,5.70
2023-01-09T04:10:32.743Z,5.80
2023-01-09T04:12:59.137Z,5.75
2023-01-09T04:15:25.762Z,5.78
2023-01-09T04:17:52.232Z,5.83
2023-01-09T04:20:18.775Z,5.88
2023-01-09T04:22:45.393Z,5.81
2023-01-09T04:25:12.171Z,5.88
2023-01-09T04:27:38.795Z,5.79
2023-01-09T04:30:05.894Z,5.80
2023-01-09T04:32:32.407Z,5.89
2023-01-09T04:34:58.864Z,5.96
2023-01-09T04:37:25.256Z,5.87
2023-01-09T04:39:54.763Z,5.98
2023-01-09T04:42:21.608Z,5.87
2023-01-09T04:44:47.979Z,5.94
2023-01-09T04:47:14.441Z,5.85
2023-01-09T04:49:40.865Z,5.97
2023-01-09T04:52:07.265Z,6.00
2023-01-09T04:54:34.470Z,5.81
2023-01-09T04:57:00.995Z,5.90
2023-01-09T04:59:27.428Z,5.85
2023-01-09T05:01:55.637Z,5.74
2023-01-09T05:04:22.241Z,5.84
2023-01-09T05:06:48.694Z,5.68
2023-01-09T05:09:15.172Z,5.74
2023-01-09T05:11:41.650Z,5.80
2023-01-09T05:14:08.050Z,5.78
2023-01-09T05:16:34.493Z,5.71
2023-01-09T05:19:01.232Z,5.90
2023-01-09T05:21:27.773Z,6.03
2023-01-09T05:23:54.170Z,6.04
2023-01-09T05:26:24.921Z,5.86
2023-01-09T05:28:52.517Z,5.83
2023-01-09T05:31:20.180Z,5.77
2023-01-09T05:33:46.853Z,5.66
2023-01-09T05:36:13.223Z,5.80
2023-01-09T05:38:39.844Z,5.80
2023-01-09T05:41:06.364Z,5.77
2023-01-09T05:43:32.978Z,5.72
2023-01-09T05:45:59.554Z,5.71
2023-01-09T05:48:26.044Z,5.75
2023-01-09T05:50:52.580Z,5.71
2023-01-09T05:53:19.029Z,5.69
2023-01-09T05:55:45.452Z,5.68
2023-01-09T05:58:12.729Z,5.71
2023-01-09T06:00:39.209Z,5.75
2023-01-09T06:03:05.742Z,5.72
2023-01-09T06:05:32.359Z,5.80
2023-01-09T06:07:58.783Z,5.86
2023-01-09T06:10:25.210Z,5.91
2023-01-09T06:12:53.056Z,6.02
2023-01-09T06:15:20.535Z,5.99
2023-01-09T06:17:47.533Z,6.04
2023-01-09T06:20:14.070Z,5.96
2023-01-09T06:22:40.492Z,5.95
2023-01-09T06:25:07.497Z,5.84
2023-01-09T06:27:33.878Z,5.81
2023-01-09T06:30:00.277Z,5.93
2023-01-09T06:32:26.709Z,5.88
2023-01-09T06:34:53.169Z,5.77
2023-01-09T06:37:19.677Z,5.80
2023-01-09T06:39:46.087Z,5.86
2023-01-09T06:42:12.465Z,5.82
2023-01-09T06:44:38.877Z,5.83
2023-01-09T06:47:05.367Z,6.00
2023-01-09T06:49:31.777Z,5.96
2023-01-09T06:51:58.295Z,5.88
2023-01-09T06:54:24.832Z,5.88
2023-01-09T06:56:51.239Z,5.93
2023-01-09T06:59:17.637Z,5.97
2023-01-09T07:01:44.171Z,6.02
2023-01-09T07:04:11.104Z,6.01
2023-01-09T07:06:38.145Z,5.82
2023-01-09T07:09:06.095Z,5.94
2023-01-09T07:11:33.017Z,6.04
2023-01-09T07:13:59.704Z,5.97
2023-01-09T07:16:26.235Z,6.01
2023-01-09T07:18:52.742Z,5.95
2023-01-09T07:21:19.186Z,5.92
2023-01-09T07:23:45.681Z,6.04
2023-01-09T07:26:12.114Z,5.95
2023-01-09T07:28:38.521Z,5.92
2023-01-09T07:31:07.501Z,6.00
2023-01-09T07:33:34.452Z,5.97
2023-01-09T07:36:00.940Z,6.01
2023-01-09T07:38:27.432Z,5.91
2023-01-09T07:40:53.818Z,5.90
2023-01-09T07:43:20.268Z,5.90
2023-01-09T07:45:46.684Z,5.96
2023-01-09T07:48:13.112Z,6.04
2023-01-09T07:50:39.495Z,6.02
2023-01-09T07:53:05.914Z,6.02
2023-01-09T07:55:32.313Z,6.04
2023-01-09T07:57:58.699Z,6.09
2023-01-09T08:00:25.279Z,6.11
2023-01-09T08:02:53.426Z,6.15
2023-01-09T08:05:20.916Z,6.19
2023-01-09T08:07:47.988Z,6.11
2023-01-09T08:10:14.810Z,6.23
2023-01-09T08:12:44.117Z,6.14
2023-01-09T08:15:11.211Z,6.14
2023-01-09T08:17:40.420Z,6.16
2023-01-09T08:20:06.967Z,6.14
2023-01-09T08:22:33.401Z,6.20
2023-01-09T08:24:59.783Z,6.23
2023-01-09T08:27:26.217Z,6.19
2023-01-09T08:29:52.656Z,6.21
2023-01-09T08:32:19.115Z,6.22
2023-01-09T08:34:45.676Z,6.22
2023-01-09T08:37:12.163Z,6.33
2023-01-09T08:39:38.656Z,6.43
2023-01-09T08:42:23.838Z,6.34
2023-01-09T08:45:08.460Z,6.41
2023-01-09T08:47:35.025Z,6.35
2023-01-09T08:50:01.573Z,6.31
2023-01-09T08:52:30.610Z,6.39
2023-01-09T08:54:57.255Z,6.46
2023-01-09T08:57:24.334Z,6.39
2023-01-09T08:59:50.823Z,6.37
2023-01-09T09:02:17.247Z,6.43
2023-01-09T09:04:43.771Z,6.45
2023-01-09T09:07:10.176Z,6.51
2023-01-09T09:09:36.571Z,6.49
2023-01-09T09:12:03.057Z,6.49
2023-01-09T09:14:48.112Z,6.58
2023-01-09T09:17:14.614Z,6.57
2023-01-09T09:19:42.609Z,6.51
2023-01-09T09:22:09.177Z,6.49
2023-01-09T09:24:35.623Z,6.50
2023-01-09T09:27:02.064Z,6.51
2023-01-09T09:29:28.620Z,6.52
2023-01-09T09:31:55.096Z,6.56
2023-01-09T09:34:22.451Z,6.62
2023-01-09T09:36:48.978Z,6.63
2023-01-09T09:39:15.398Z,6.61
2023-01-09T09:42:16.172Z,6.65
2023-01-09T09:45:04.906Z,6.71
2023-01-09T09:47:40.471Z,6.66
2023-01-09T09:50:28.269Z,6.75
2023-01-09T09:53:10.623Z,6.78
2023-01-09T09:55:40.063Z,6.72
2023-01-09T09:58:29.121Z,6.76
2023-01-09T10:00:57.067Z,6.73
2023-01-09T10:03:33.307Z,6.75
2023-01-09T10:06:05.779Z,6.81
2023-01-09T10:08:58.170Z,6.75
2023-01-09T10:11:32.903Z,6.74
2023-01-09T10:14:08.232Z,6.77
2023-01-09T10:16:47.741Z,6.75
2023-01-09T10:19:38.675Z,6.87
2023-01-09T10:22:30.063Z,6.81
2023-01-09T10:25:22.638Z,6.90
2023-01-09T10:28:19.699Z,6.92
2023-01-09T10:30:51.784Z,7.01
2023-01-09T10:33:31.051Z,6.92
2023-01-09T10:36:28.922Z,6.92
2023-01-09T10:39:00.039Z,6.96
2023-01-09T10:42:00.215Z,6.94
2023-01-09T10:44:37.364Z,6.87
2023-01-09T10:47:17.127Z,6.96
2023-01-09T10:49:46.236Z,6.96
2023-01-09T10:52:17.978Z,6.93
2023-01-09T10:54:56.964Z,7.04
2023-01-09T10:57:40.204Z,6.99
2023-01-09T11:00:08.468Z,6.84
2023-01-09T11:02:36.036Z,6.97
2023-01-09T11:05:02.670Z,6.96
2023-01-09T11:07:37.497Z,7.14
2023-01-09T11:10:07.894Z,7.23
2023-01-09T11:12:35.937Z,7.16
2023-01-09T11:15:34.551Z,7.30
2023-01-09T11:18:24.455Z,7.26
2023-01-09T11:20:51.794Z,7.32
2023-01-09T11:23:30.402Z,7.33
2023-01-09T11:25:59.899Z,7.38
2023-01-09T11:28:26.520Z,7.29
2023-01-09T11:31:02.837Z,7.53
2023-01-09T11:33:36.984Z,7.42
2023-01-09T11:36:14.928Z,7.31
2023-01-09T11:38:50.940Z,7.48
2023-01-09T11:41:20.904Z,7.40
2023-01-09T11:43:50.532Z,7.50
2023-01-09T11:46:38.079Z,7.43
2023-01-09T11:49:33.821Z,7.47
2023-01-09T11:52:20.877Z,7.44
2023-01-09T11:55:04.206Z,7.45
2023-01-09T11:57:31.452Z,7.51
2023-01-09T12:00:01.976Z,7.39
2023-01-09T12:02:46.620Z,7.50
2023-01-09T12:05:30.244Z,7.53
2023-01-09T12:08:05.911Z,7.53
2023-01-09T12:10:35.081Z,7.70
2023-01-09T12:13:06.140Z,7.59
2023-01-09T12:15:49.201Z,7.51
2023-01-09T12:18:49.589Z,7.56
2023-01-09T12:21:25.451Z,7.38
2023-01-09T12:24:00.942Z,7.41
2023-01-09T12:26:46.637Z,7.44
2023-01-09T12:29:25.649Z,7.56
2023-01-09T12:32:21.778Z,7.58
2023-01-09T12:35:06.545Z,7.46
2023-01-09T12:37:50.819Z,7.52
2023-01-09T12:40:17.205Z,7.55
2023-01-09T12:42:58.038Z,7.57
2023-01-09T12:45:39.767Z,7.60
2023-01-09T12:48:31.252Z,7.61
2023-01-09T12:51:28.957Z,7.61
2023-01-09T12:54:22.089Z,7.60
2023-01-09T12:56:53.426Z,7.60
2023-01-09T12:59:32.024Z,7.57
2023-01-09T13:02:18.739Z,7.47
2023-01-09T13:05:02.412Z,7.58
2023-01-09T13:08:21.359Z,7.79
2023-01-09T13:10:57.492Z,7.65
2023-01-09T13:13:35.162Z,7.60
2023-01-09T13:16:08.361Z,7.66
2023-01-09T13:18:52.611Z,7.56
2023-01-09T13:21:19.496Z,7.57
2023-01-09T13:24:12.107Z,7.59
2023-01-09T13:26:46.597Z,7.64
2023-01-09T13:29:16.381Z,7.55
2023-01-09T13:32:01.178Z,7.59
2023-01-09T13:34:30.641Z,7.56
2023-01-09T13:36:58.612Z,7.43
2023-01-09T13:39:34.023Z,7.44
2023-01-09T13:42:24.798Z,7.40
2023-01-09T13:44:55.619Z,7.41
2023-01-09T13:47:25.457Z,7.33
2023-01-09T13:49:51.960Z,7.28
2023-01-09T13:52:24.309Z,7.23
2023-01-09T13:55:02.823Z,7.22
2023-01-09T13:57:31.076Z,7.13
2023-01-09T14:00:16.860Z,6.95
2023-01-09T14:02:46.887Z,6.96
2023-01-09T14:05:15.972Z,6.92
2023-01-09T14:07:49.379Z,6.84
2023-01-09T14:10:23.215Z,6.79
2023-01-09T14:12:51.756Z,6.73
2023-01-09T14:15:42.045Z,6.69
2023-01-09T14:18:31.019Z,6.68
2023-01-09T14:23:52.763Z,6.71
2023-01-09T14:26:23.653Z,6.70
2023-01-09T14:28:50.615Z,6.70
2023-01-09T14:31:29.921Z,6.71
2023-01-09T14:34:31.871Z,6.73
2023-01-09T14:37:01.453Z,6.73
2023-01-09T14:39:31.841Z,6.73
2023-01-09T14:42:09.205Z,6.76
2023-01-09T14:44:48.855Z,6.78
2023-01-09T14:47:28.361Z,6.78
2023-01-09T14:50:29.711Z,6.79
2023-01-09T14:53:18.075Z,6.83
2023-01-09T14:55:58.279Z,6.84
2023-01-09T14:58:36.078Z,6.83
2023-01-09T15:01:18.915Z,6.83
2023-01-09T15:03:58.827Z,6.87
2023-01-09T15:06:33.121Z,6.85
2023-01-09T15:09:24.579Z,6.98
2023-01-09T15:11:55.027Z,6.98
2023-01-09T15:14:35.921Z,7.01
2023-01-09T15:17:04.170Z,6.99
2023-01-09T15:19:32.063Z,6.96
2023-01-09T15:22:01.651Z,6.92
2023-01-09T15:24:30.809Z,6.95
2023-01-09T15:27:01.040Z,6.96
2023-01-09T15:29:28.614Z,6.97
2023-01-09T15:32:05.466Z,6.98
2023-01-09T15:34:33.215Z,6.94
2023-01-09T15:37:00.872Z,6.96
2023-01-09T15:39:38.987Z,6.96
2023-01-09T15:42:40.581Z,6.94
2023-01-09T15:45:18.717Z,6.94
2023-01-09T15:47:45.388Z,6.99
2023-01-09T15:53:29.116Z,7.01
2023-01-09T15:56:24.865Z,7.04
2023-01-09T15:58:54.807Z,7.01
2023-01-09T16:01:41.620Z,6.97
2023-01-09T16:04:16.316Z,6.95
2023-01-09T16:06:48.809Z,6.90
2023-01-09T16:09:18.344Z,6.89
2023-01-09T16:11:54.147Z,6.82
2023-01-09T16:14:38.275Z,6.77
2023-01-09T16:17:07.551Z,6.71
2023-01-09T16:19:52.242Z,6.65
2023-01-09T16:22:32.324Z,6.62
2023-01-09T16:25:38.882Z,6.54
2023-01-09T16:31:08.740Z,6.52
2023-01-09T16:33:36.003Z,6.53
2023-01-09T16:36:04.920Z,6.58
2023-01-09T16:38:31.478Z,6.61
2023-01-09T16:41:22.120Z,6.64
2023-01-09T16:43:49.456Z,6.64
2023-01-09T16:46:17.527Z,6.67
2023-01-09T16:48:44.237Z,6.68
2023-01-09T16:51:16.809Z,6.77
2023-01-09T16:53:44.177Z,6.80
2023-01-09T16:56:17.646Z,6.79
2023-01-09T16:58:44.128Z,6.72
2023-01-09T17:01:13.302Z,6.78
2023-01-09T17:03:43.540Z,6.89
2023-01-09T17:06:29.406Z,6.85
2023-01-09T17:08:56.199Z,6.86
2023-01-09T17:11:28.226Z,6.88
2023-01-09T17:13:54.671Z,6.89
2023-01-09T17:16:21.215Z,6.91
2023-01-09T17:18:47.791Z,6.94
2023-01-09T17:21:19.974Z,6.86
2023-01-09T17:23:47.320Z,6.84
2023-01-09T17:26:38.401Z,6.86
2023-01-09T17:29:05.495Z,6.81
2023-01-09T17:31:32.311Z,6.81
2023-01-09T17:33:59.131Z,6.86
2023-01-09T17:36:34.682Z,6.85
2023-01-09T17:39:01.977Z,6.79
2023-01-09T17:41:30.541Z,6.75
2023-01-09T17:43:59.108Z,6.77
2023-01-09T17:46:37.284Z,6.91
2023-01-09T17:49:05.418Z,6.86
2023-01-09T17:51:32.230Z,6.81
2023-01-09T17:53:59.355Z,6.82
2023-01-09T17:56:29.099Z,6.93
2023-01-09T17:58:55.863Z,6.83
2023-01-09T18:01:22.401Z,6.82
2023-01-09T18:03:50.376Z,6.90
2023-01-09T18:06:18.834Z,6.85
2023-01-09T18:08:46.041Z,6.82
2023-01-09T18:11:18.100Z,6.81
2023-01-09T18:13:45.944Z,6.88
2023-01-09T18:16:14.305Z,6.84
2023-01-09T18:18:40.996Z,6.88
2023-01-09T18:21:08.637Z,6.94
2023-01-09T18:23:38.101Z,6.97
2023-01-09T18:26:08.869Z,6.95
2023-01-09T18:28:39.426Z,6.91
2023-01-09T18:31:06.484Z,6.89
2023-01-09T18:33:33.171Z,6.92
2023-01-09T18:36:08.208Z,6.83
2023-01-09T18:38:35.458Z,6.77
2023-01-09T18:41:03.577Z,6.69
2023-01-09T18:43:30.541Z,6.67
2023-01-09T18:45:57.389Z,6.67
2023-01-09T18:48:24.110Z,6.62
2023-01-09T18:50:50.760Z,6.52
2023-01-09T18:53:17.339Z,6.48
2023-01-09T18:55:43.874Z,6.53
2023-01-09T18:58:10.327Z,6.51
2023-01-09T19:00:36.927Z,6.46
2023-01-09T19:03:03.476Z,6.34
2023-01-09T19:05:33.693Z,6.28
2023-01-09T19:08:00.949Z,6.13
2023-01-09T19:10:28.063Z,6.17
2023-01-09T19:12:54.685Z,6.15
2023-01-09T19:15:21.229Z,6.10
2023-01-09T19:17:50.363Z,6.04
2023-01-09T19:20:17.212Z,5.99
2023-01-09T19:22:43.705Z,5.90
2023-01-09T19:25:12.618Z,5.84
2023-01-09T19:27:39.458Z,5.79
2023-01-09T19:30:07.223Z,5.75
2023-01-09T19:32:33.885Z,5.72
2023-01-09T19:35:00.362Z,5.77
2023-01-09T19:37:26.836Z,5.81
2023-01-09T19:39:53.252Z,5.82
2023-01-09T19:42:19.829Z,5.81
2023-01-09T19:44:46.322Z,5.75
2023-01-09T19:47:13.996Z,5.77
2023-01-09T19:49:40.646Z,5.80
2023-01-09T19:52:07.244Z,5.80
2023-01-09T19:54:33.766Z,5.84
2023-01-09T19:57:00.284Z,5.80
2023-01-09T19:59:26.915Z,5.78
2023-01-09T20:01:53.512Z,5.83
2023-01-09T20:04:20.134Z,5.84
2023-01-09T20:06:48.914Z,5.79
2023-01-09T20:09:18.077Z,5.78
2023-01-09T20:11:44.840Z,5.70
2023-01-09T20:14:15.495Z,5.70
2023-01-09T20:16:44.996Z,5.65
2023-01-09T20:19:12.915Z,5.58
2023-01-09T20:21:39.824Z,5.54
2023-01-09T20:24:07.583Z,5.45
2023-01-09T20:26:36.053Z,5.29
2023-01-09T20:29:03.095Z,5.48
2023-01-09T20:31:31.600Z,5.53
2023-01-09T20:34:01.550Z,5.63
2023-01-09T20:36:30.135Z,5.69
2023-01-09T20:38:58.408Z,5.75
2023-01-09T20:41:25.837Z,5.63
2023-01-09T20:43:57.715Z,5.75
2023-01-09T20:46:26.828Z,5.78
2023-01-09T20:48:57.758Z,5.62
2023-01-09T20:51:25.256Z,5.84
2023-01-09T20:53:58.427Z,5.65
2023-01-09T20:56:30.424Z,5.72
2023-01-09T20:58:58.426Z,5.58
2023-01-09T21:01:25.885Z,5.60
2023-01-09T21:03:54.437Z,5.61
2023-01-09T21:06:22.874Z,5.78
2023-01-09T21:08:50.826Z,5.76
2023-01-09T21:11:17.855Z,5.75
2023-01-09T21:13:44.301Z,5.73
2023-01-09T21:16:15.962Z,5.80
2023-01-09T21:18:43.321Z,5.68
2023-01-09T21:21:21.360Z,5.78
2023-01-09T21:23:51.733Z,5.80
2023-01-09T21:26:22.156Z,5.84
2023-01-09T21:28:50.095Z,5.86
2023-01-09T21:31:19.364Z,6.03
2023-01-09T21:33:47.003Z,6.01
2023-01-09T21:36:13.804Z,6.02
2023-01-09T21:38:40.530Z,6.07
2023-01-09T21:41:25.208Z,6.12
2023-01-09T21:44:09.939Z,6.13
2023-01-09T21:46:51.776Z,6.20
2023-01-09T21:49:23.158Z,6.13
2023-01-09T21:51:49.567Z,6.15
2023-01-09T21:54:16.027Z,6.17
2023-01-09T21:56:42.444Z,6.26
2023-01-09T21:59:08.999Z,6.18
2023-01-09T22:01:35.684Z,6.20
2023-01-09T22:04:03.751Z,6.04
2023-01-09T22:06:30.185Z,6.06
2023-01-09T22:08:57.118Z,6.15
2023-01-09T22:11:23.588Z,6.06
2023-01-09T22:13:50.734Z,6.24
2023-01-09T22:16:18.114Z,6.11
2023-01-09T22:18:44.582Z,6.09
2023-01-09T22:21:11.247Z,6.12
2023-01-09T22:23:37.797Z,6.15
2023-01-09T22:26:10.136Z,6.22
2023-01-09T22:28:36.641Z,6.19
2023-01-09T22:31:03.318Z,6.14
2023-01-09T22:33:29.718Z,6.18
2023-01-09T22:35:56.172Z,6.32
2023-01-09T22:38:22.590Z,6.28
2023-01-09T22:40:49.813Z,6.38
2023-01-09T22:43:17.181Z,6.39
2023-01-09T22:45:43.749Z,6.37
2023-01-09T22:48:10.251Z,6.28
2023-01-09T22:50:37.099Z,6.27
2023-01-09T22:53:03.926Z,6.35
2023-01-09T22:55:30.346Z,6.34
2023-01-09T22:57:56.723Z,6.41
2023-01-09T23:00:23.205Z,6.42
2023-01-09T23:02:49.836Z,6.45
2023-01-09T23:05:16.408Z,6.38
2023-01-09T23:07:42.822Z,6.43
2023-01-09T23:10:09.908Z,6.48
2023-01-09T23:12:36.296Z,6.48
2023-01-09T23:15:02.836Z,6.51
2023-01-09T23:17:29.225Z,6.54
2023-01-09T23:19:55.661Z,6.56
2023-01-09T23:22:22.772Z,6.57
2023-01-09T23:24:49.182Z,6.53
2023-01-09T23:27:15.571Z,6.59
2023-01-09T23:29:41.978Z,6.56
2023-01-09T23:32:08.537Z,6.58
2023-01-09T23:34:35.114Z,6.53
2023-01-09T23:37:01.629Z,6.75
2023-01-09T23:39:28.053Z,6.65
2023-01-09T23:42:13.107Z,6.59
2023-01-09T23:44:39.600Z,6.79
2023-01-09T23:47:06.076Z,6.95
2023-01-09T23:49:32.506Z,6.72
2023-01-09T23:52:01.534Z,6.66
2023-01-09T23:54:28.496Z,6.81
2023-01-09T23:56:56.402Z,6.65
2023-01-09T23:59:23.228Z,6.72
